Time;durP1;ratioP1;P1;durP2;ratioP2;P2;SDS_P1;SDS_P2;PMS_P1;PMS_P2;Temp;Humidity;BMP_temperature;BMP_pressure;BME280_temperature;BME280_humidity;BME280_pressure;Samples;Min_cycle;Max_cycle;Signal;HPM_P1;HPM_P2
2022/12/15 00:38:42;;;;;;;16.98;10.48;;;;;;;;;;5059563;28;20056;-81
2022/12/15 00:41:07;;;;;;;18.52;9.60;;;;;;;;;;5063292;28;20097;-78
2022/12/15 00:43:34;;;;;;;28.13;10.15;;;;;;;;;;5075536;28;20040;-78
2022/12/15 00:48:45;;;;;;;17.08;11.15;;;;;;;;;;5056655;28;20094;-81
2022/12/15 00:51:10;;;;;;;19.63;10.00;;;;;;;;;;5055151;28;20616;-81
2022/12/15 01:20:58;;;;;;;18.75;8.90;;;;;;;;;;5055478;28;20035;-78
2022/12/15 01:23:24;;;;;;;18.95;9.80;;;;;;;;;;5072877;28;20394;-78
2022/12/15 01:25:51;;;;;;;21.00;10.60;;;;;;;;;;5073295;28;20558;-78
2022/12/15 01:28:18;;;;;;;20.80;10.13;;;;;;;;;;5063276;28;20066;-81
2022/12/15 01:30:44;;;;;;;15.48;8.25;;;;;;;;;;5056316;28;20041;-81
2022/12/15 01:33:09;;;;;;;23.58;9.65;;;;;;;;;;5055135;28;20037;-81
2022/12/15 01:35:35;;;;;;;16.48;8.38;;;;;;;;;;5053386;28;20086;-81
2022/12/15 01:38:00;;;;;;;19.15;11.20;;;;;;;;;;5049742;28;20036;-80
2022/12/15 01:40:44;;;;;;;22.02;10.60;;;;;;;;;;5056617;28;20044;-81
2022/12/15 01:43:24;;;;;;;21.55;10.00;;;;;;;;;;5056474;28;20033;-81
2022/12/15 01:45:53;;;;;;;17.73;9.18;;;;;;;;;;5057141;28;20047;-81
2022/12/15 01:48:26;;;;;;;20.38;10.82;;;;;;;;;;5055942;28;21323;-81
2022/12/15 01:51:09;;;;;;;22.70;11.32;;;;;;;;;;5056094;28;20123;-81
2022/12/15 01:53:56;;;;;;;22.30;10.23;;;;;;;;;;5055054;28;20055;-80
2022/12/15 01:56:23;;;;;;;15.18;8.77;;;;;;;;;;5057782;28;20032;-80
2022/12/15 01:58:52;;;;;;;20.75;10.93;;;;;;;;;;5057541;28;20033;-80
2022/12/15 02:01:18;;;;;;;16.48;9.18;;;;;;;;;;5056320;28;20044;-80
2022/12/15 02:03:46;;;;;;;23.73;9.63;;;;;;;;;;5058180;28;20028;-80
2022/12/15 02:06:12;;;;;;;18.55;9.13;;;;;;;;;;5053011;28;20479;-80
2022/12/15 02:08:38;;;;;;;17.60;9.95;;;;;;;;;;5056054;28;21682;-81
2022/12/15 02:11:07;;;;;;;18.25;7.95;;;;;;;;;;5056810;28;20033;-80
2022/12/15 02:13:53;;;;;;;16.02;9.60;;;;;;;;;;5056202;28;20703;-81
2022/12/15 02:16:27;;;;;;;17.95;9.23;;;;;;;;;;5054168;28;20040;-81
2022/12/15 02:19:04;;;;;;;19.40;8.90;;;;;;;;;;5057003;28;20086;-80
2022/12/15 02:21:38;;;;;;;16.83;8.95;;;;;;;;;;5054155;28;20042;-80
2022/12/15 02:24:42;;;;;;;19.13;9.65;;;;;;;;;;5055157;28;20032;-80
2022/12/15 02:27:27;;;;;;;19.40;8.45;;;;;;;;;;5053063;28;20071;-80
2022/12/15 02:30:12;;;;;;;17.85;8.93;;;;;;;;;;5059156;28;20131;-80
2022/12/15 02:32:54;;;;;;;14.57;8.20;;;;;;;;;;5058675;28;20024;-80
2022/12/15 02:35:25;;;;;;;19.23;8.70;;;;;;;;;;5060441;28;20047;-80
2022/12/15 02:37:50;;;;;;;17.58;9.20;;;;;;;;;;5059167;28;20131;-80
2022/12/15 02:40:16;;;;;;;19.20;9.02;;;;;;;;;;5061617;28;20620;-80
2022/12/15 02:42:46;;;;;;;18.20;8.98;;;;;;;;;;5061823;28;20027;-80
2022/12/15 02:45:14;;;;;;;15.80;8.07;;;;;;;;;;5058069;28;20023;-80
2022/12/15 02:47:39;;;;;;;20.00;9.70;;;;;;;;;;5067551;28;20024;-80
2022/12/15 02:50:19;;;;;;;16.40;9.73;;;;;;;;;;5070734;28;20027;-80
2022/12/15 02:52:47;;;;;;;21.60;9.52;;;;;;;;;;5072775;28;20115;-80
2022/12/15 02:55:45;;;;;;;19.95;9.25;;;;;;;;;;5072635;28;20051;-80
2022/12/15 02:58:34;;;;;;;17.17;9.60;;;;;;;;;;5072867;28;21061;-80
2022/12/15 03:01:10;;;;;;;22.15;9.93;;;;;;;;;;5067102;28;20440;-80
2022/12/15 03:03:37;;;;;;;18.65;9.20;;;;;;;;;;5055721;28;20025;-80
2022/12/15 03:06:02;;;;;;;16.83;9.88;;;;;;;;;;5056124;28;21011;-80
2022/12/15 03:08:28;;;;;;;26.00;11.10;;;;;;;;;;5055386;28;20033;-80
2022/12/15 03:10:56;;;;;;;24.25;9.93;;;;;;;;;;5055577;28;20032;-80
2022/12/15 03:13:23;;;;;;;19.65;9.85;;;;;;;;;;5055935;28;20032;-80
2022/12/15 03:15:48;;;;;;;16.52;9.00;;;;;;;;;;5056352;28;20103;-80
2022/12/15 03:18:14;;;;;;;23.40;11.35;;;;;;;;;;5059151;28;20380;-79
2022/12/15 03:20:40;;;;;;;16.83;9.38;;;;;;;;;;5061947;28;20039;-79
2022/12/15 03:23:06;;;;;;;20.92;9.52;;;;;;;;;;5060587;28;20119;-79
2022/12/15 03:25:31;;;;;;;19.15;9.07;;;;;;;;;;5057024;28;20158;-79
2022/12/15 03:27:57;;;;;;;15.93;8.38;;;;;;;;;;5056357;28;20082;-80
2022/12/15 03:30:22;;;;;;;33.45;11.05;;;;;;;;;;5052745;28;20024;-79
2022/12/15 03:32:47;;;;;;;19.50;9.27;;;;;;;;;;5053600;28;20028;-80
2022/12/15 03:35:13;;;;;;;22.63;9.73;;;;;;;;;;5053995;28;20181;-80
2022/12/15 03:37:40;;;;;;;17.45;9.73;;;;;;;;;;5050790;28;20562;-80
2022/12/15 03:40:06;;;;;;;23.80;11.55;;;;;;;;;;5052784;28;20116;-80
2022/12/15 03:42:47;;;;;;;17.95;8.95;;;;;;;;;;5051779;28;20068;-80
2022/12/15 03:45:12;;;;;;;24.10;11.00;;;;;;;;;;5054058;28;20016;-80
2022/12/15 03:47:40;;;;;;;22.30;10.45;;;;;;;;;;5063361;28;20163;-79
2022/12/15 03:50:07;;;;;;;16.95;8.07;;;;;;;;;;5068591;28;20021;-80
2022/12/15 03:52:32;;;;;;;21.02;11.20;;;;;;;;;;5052202;28;20036;-80
2022/12/15 03:54:57;;;;;;;17.10;9.25;;;;;;;;;;5052734;28;20036;-80
2022/12/15 03:57:22;;;;;;;25.35;11.40;;;;;;;;;;5052673;28;20025;-80
2022/12/15 03:59:48;;;;;;;18.05;10.48;;;;;;;;;;5060090;28;20199;-80
2022/12/15 04:02:13;;;;;;;16.50;10.18;;;;;;;;;;5058710;28;20437;-80
2022/12/15 04:04:38;;;;;;;18.83;8.57;;;;;;;;;;5065331;28;20024;-80
2022/12/15 04:07:04;;;;;;;20.23;10.18;;;;;;;;;;5064996;28;20024;-81
2022/12/15 04:09:29;;;;;;;23.75;10.48;;;;;;;;;;5064453;28;20040;-81
2022/12/15 04:11:54;;;;;;;25.33;11.68;;;;;;;;;;5058984;28;20024;-80
2022/12/15 04:14:20;;;;;;;19.17;10.20;;;;;;;;;;5062034;28;20033;-80
2022/12/15 04:16:45;;;;;;;24.63;10.23;;;;;;;;;;5058241;28;20033;-80
2022/12/15 04:21:54;;;;;;;17.15;9.90;;;;;;;;;;5058122;28;20104;-80
2022/12/15 05:32:40;;;;;;;20.13;9.35;;;;;;;;;;5061251;28;20447;-80
2022/12/15 05:35:05;;;;;;;21.17;9.55;;;;;;;;;;5059494;28;20590;-80
2022/12/15 05:37:31;;;;;;;26.38;10.85;;;;;;;;;;5059304;28;20032;-80
2022/12/15 05:39:56;;;;;;;19.20;10.07;;;;;;;;;;5060389;28;20115;-80
2022/12/15 05:42:21;;;;;;;14.98;7.80;;;;;;;;;;5058243;28;20033;-80
2022/12/15 05:44:47;;;;;;;20.13;9.95;;;;;;;;;;5063416;28;21316;-80
2022/12/15 05:47:12;;;;;;;20.48;12.15;;;;;;;;;;5061604;28;20548;-80
2022/12/15 05:49:38;;;;;;;16.50;8.77;;;;;;;;;;5060045;28;20028;-80
2022/12/15 05:52:05;;;;;;;18.27;9.80;;;;;;;;;;5059701;28;20028;-80
2022/12/15 05:54:31;;;;;;;19.25;9.38;;;;;;;;;;5062833;28;20752;-80
2022/12/15 05:56:56;;;;;;;21.08;10.30;;;;;;;;;;5056464;28;20041;-80
2022/12/15 05:59:21;;;;;;;25.98;9.85;;;;;;;;;;5054201;28;21049;-80
2022/12/15 06:01:47;;;;;;;26.38;9.60;;;;;;;;;;5057988;28;20029;-80
2022/12/15 06:04:12;;;;;;;17.48;9.25;;;;;;;;;;5057264;28;20542;-80
2022/12/15 06:06:38;;;;;;;19.15;9.73;;;;;;;;;;5059493;28;20028;-81
2022/12/15 06:09:04;;;;;;;18.65;8.77;;;;;;;;;;5067935;28;20083;-81
2022/12/15 06:11:29;;;;;;;24.30;12.55;;;;;;;;;;5054039;28;20040;-80
2022/12/15 06:13:55;;;;;;;16.50;9.02;;;;;;;;;;5054461;28;20029;-81
2022/12/15 06:16:22;;;;;;;18.80;9.52;;;;;;;;;;5054177;28;20048;-80
2022/12/15 06:18:49;;;;;;;21.35;10.13;;;;;;;;;;5057399;28;20040;-81
2022/12/15 06:21:18;;;;;;;20.05;10.18;;;;;;;;;;5056517;28;20017;-81
2022/12/15 06:23:44;;;;;;;20.40;9.63;;;;;;;;;;5054909;28;20078;-81
2022/12/15 06:26:13;;;;;;;20.38;9.38;;;;;;;;;;5086325;28;20099;-81
2022/12/15 06:28:39;;;;;;;22.10;9.40;;;;;;;;;;5073210;28;20027;-83
2022/12/15 06:31:14;;;;;;;23.20;9.80;;;;;;;;;;5074664;28;20489;-80
2022/12/15 06:33:40;;;;;;;28.92;11.95;;;;;;;;;;5091144;28;20020;-80
2022/12/15 06:36:12;;;;;;;19.70;10.40;;;;;;;;;;5078201;28;20423;-79
2022/12/15 06:38:37;;;;;;;18.10;8.65;;;;;;;;;;5078969;28;20029;-81
2022/12/15 06:41:04;;;;;;;23.33;9.70;;;;;;;;;;5087530;28;20044;-81
2022/12/15 06:43:32;;;;;;;19.42;11.20;;;;;;;;;;5080414;28;20084;-81
2022/12/15 06:45:57;;;;;;;20.35;8.85;;;;;;;;;;5085136;28;20051;-81
2022/12/15 06:48:23;;;;;;;19.05;9.68;;;;;;;;;;5079718;28;20390;-81
2022/12/15 06:50:49;;;;;;;16.45;9.70;;;;;;;;;;5078548;28;20029;-81
2022/12/15 06:53:16;;;;;;;20.02;9.48;;;;;;;;;;5081008;28;20031;-80
2022/12/15 06:55:42;;;;;;;20.77;8.88;;;;;;;;;;5081529;28;20021;-80
2022/12/15 06:58:07;;;;;;;20.20;9.55;;;;;;;;;;5074268;28;20031;-80
2022/12/15 07:00:35;;;;;;;21.17;9.55;;;;;;;;;;5069237;28;20028;-81
2022/12/15 07:03:06;;;;;;;17.65;10.75;;;;;;;;;;5078066;28;20024;-83
2022/12/15 07:05:31;;;;;;;25.50;10.30;;;;;;;;;;5072810;28;20554;-81
2022/12/15 07:07:56;;;;;;;20.92;10.45;;;;;;;;;;5092202;28;20059;-81
2022/12/15 07:10:22;;;;;;;18.80;8.80;;;;;;;;;;5087853;28;20017;-81
2022/12/15 07:12:47;;;;;;;19.58;9.88;;;;;;;;;;5059212;28;20029;-80
2022/12/15 07:15:12;;;;;;;18.38;9.32;;;;;;;;;;5055486;28;20040;-85
2022/12/15 07:17:38;;;;;;;36.00;10.30;;;;;;;;;;5057341;28;20029;-81
2022/12/15 07:20:04;;;;;;;20.55;9.07;;;;;;;;;;5076693;28;20052;-81
2022/12/15 07:22:30;;;;;;;15.65;8.70;;;;;;;;;;5078901;28;20057;-81
2022/12/15 07:24:55;;;;;;;16.83;9.55;;;;;;;;;;5073060;28;20036;-81
2022/12/15 07:27:21;;;;;;;22.73;9.75;;;;;;;;;;5078343;28;20021;-88
2022/12/15 07:29:46;;;;;;;15.30;9.18;;;;;;;;;;5077359;28;20044;-82
2022/12/15 07:32:12;;;;;;;14.40;8.02;;;;;;;;;;5071251;28;20023;-81
2022/12/15 07:34:37;;;;;;;17.98;9.55;;;;;;;;;;5067256;28;20025;-81
2022/12/15 07:37:02;;;;;;;25.73;9.80;;;;;;;;;;5072834;28;20017;-81
2022/12/15 07:39:28;;;;;;;13.25;8.23;;;;;;;;;;5064224;28;20044;-82
2022/12/15 07:41:53;;;;;;;22.58;9.48;;;;;;;;;;5077739;28;20145;-81
2022/12/15 07:44:18;;;;;;;21.05;11.18;;;;;;;;;;5077765;28;20471;-81
2022/12/15 07:46:45;;;;;;;27.40;11.20;;;;;;;;;;5077919;28;20099;-82
2022/12/15 07:49:12;;;;;;;18.40;10.73;;;;;;;;;;5076591;28;20036;-81
2022/12/15 07:51:37;;;;;;;21.00;9.93;;;;;;;;;;5072961;28;20452;-82
2022/12/15 07:54:03;;;;;;;26.73;12.73;;;;;;;;;;5075116;28;20028;-81
2022/12/15 07:56:28;;;;;;;14.45;8.52;;;;;;;;;;5097390;28;20024;-79
2022/12/15 07:58:53;;;;;;;12.90;7.60;;;;;;;;;;5098744;28;20056;-80
2022/12/15 08:01:19;;;;;;;18.92;11.02;;;;;;;;;;5097256;28;20020;-81
2022/12/15 08:03:44;;;;;;;19.90;9.52;;;;;;;;;;5098032;28;20446;-82
2022/12/15 08:06:12;;;;;;;19.35;9.43;;;;;;;;;;5096650;28;20049;-81
2022/12/15 08:08:38;;;;;;;16.42;10.32;;;;;;;;;;5097899;28;20028;-81
2022/12/15 08:11:08;;;;;;;15.50;8.18;;;;;;;;;;5097340;28;20024;-80
2022/12/15 08:13:35;;;;;;;22.85;9.88;;;;;;;;;;5096181;28;20024;-81
2022/12/15 08:16:00;;;;;;;20.58;9.32;;;;;;;;;;5095781;28;20076;-81
2022/12/15 08:18:27;;;;;;;14.95;8.75;;;;;;;;;;5092272;28;20087;-80
2022/12/15 08:20:52;;;;;;;24.02;9.48;;;;;;;;;;5059985;28;20033;-82
2022/12/15 08:23:17;;;;;;;18.50;7.63;;;;;;;;;;5079596;28;20027;-82
2022/12/15 08:25:43;;;;;;;27.92;11.35;;;;;;;;;;5076776;28;20060;-81
2022/12/15 08:28:08;;;;;;;23.52;8.27;;;;;;;;;;5068300;28;20048;-82
2022/12/15 08:30:35;;;;;;;18.48;10.90;;;;;;;;;;5068453;28;20024;-82
2022/12/15 08:33:01;;;;;;;19.80;7.07;;;;;;;;;;5081053;28;20012;-81
2022/12/15 08:35:26;;;;;;;21.63;9.52;;;;;;;;;;5090713;28;20504;-81
2022/12/15 08:37:52;;;;;;;18.25;8.52;;;;;;;;;;5097896;28;20028;-82
2022/12/15 08:40:17;;;;;;;24.63;10.85;;;;;;;;;;5098003;28;20031;-81
2022/12/15 08:42:43;;;;;;;24.45;8.77;;;;;;;;;;5097908;28;20028;-81
2022/12/15 08:45:10;;;;;;;19.95;7.53;;;;;;;;;;5097819;28;20023;-81
2022/12/15 08:47:35;;;;;;;15.23;7.65;;;;;;;;;;5085440;28;20103;-82
2022/12/15 08:50:49;;;;;;;18.27;8.57;;;;;;;;;;5077005;28;20090;-81
2022/12/15 08:53:14;;;;;;;14.93;8.00;;;;;;;;;;5012890;28;20029;-81
2022/12/15 09:00:42;;;;;;;17.85;8.63;;;;;;;;;;5035419;28;20568;-82
2022/12/15 09:03:07;;;;;;;31.95;10.18;;;;;;;;;;5030118;28;20068;-81
2022/12/15 09:05:37;;;;;;;14.95;7.28;;;;;;;;;;5045377;28;20116;-81
2022/12/15 09:08:03;;;;;;;20.60;9.15;;;;;;;;;;5054187;28;20055;-81
2022/12/15 09:10:52;;;;;;;14.52;6.93;;;;;;;;;;5054292;28;20063;-81
2022/12/15 09:13:47;;;;;;;21.60;10.70;;;;;;;;;;5055798;28;20032;-82
2022/12/15 09:19:35;;;;;;;19.25;6.78;;;;;;;;;;4992101;28;20035;-82
2022/12/15 09:22:00;;;;;;;16.40;8.77;;;;;;;;;;5026864;28;20033;-82
2022/12/15 09:24:25;;;;;;;20.83;11.02;;;;;;;;;;5021268;28;20020;-82
2022/12/15 09:26:51;;;;;;;22.58;9.70;;;;;;;;;;5015628;28;20028;-80
2022/12/15 09:29:34;;;;;;;20.88;10.80;;;;;;;;;;5018604;28;20598;-78
2022/12/15 09:32:06;;;;;;;23.48;10.13;;;;;;;;;;5023071;28;20338;-85
2022/12/15 09:37:55;;;;;;;27.80;9.75;;;;;;;;;;4983113;28;20037;-82
2022/12/15 09:40:20;;;;;;;19.38;10.00;;;;;;;;;;4986517;28;20033;-81
2022/12/15 09:42:51;;;;;;;17.58;8.52;;;;;;;;;;4978568;28;20034;-81
2022/12/15 09:45:33;;;;;;;26.55;10.95;;;;;;;;;;4984880;28;20063;-82
2022/12/15 09:48:03;;;;;;;15.88;8.35;;;;;;;;;;5018255;28;20540;-83
2022/12/15 09:50:35;;;;;;;15.77;9.40;;;;;;;;;;5022039;28;20977;-80
2022/12/15 09:56:54;;;;;;;22.00;10.13;;;;;;;;;;4998484;28;20060;-81
2022/12/15 09:59:37;;;;;;;19.00;9.35;;;;;;;;;;5032281;28;20043;-84
2022/12/15 10:02:20;;;;;;;25.60;9.88;;;;;;;;;;5054769;28;20519;-83
2022/12/15 10:05:22;;;;;;;21.65;9.30;;;;;;;;;;5056613;28;20021;-84
2022/12/15 10:07:49;;;;;;;21.63;9.30;;;;;;;;;;5036029;28;20044;-83
2022/12/15 10:10:27;;;;;;;29.13;10.88;;;;;;;;;;5055472;28;20098;-83
2022/12/15 10:12:56;;;;;;;25.83;11.52;;;;;;;;;;5056911;28;20029;-84
2022/12/15 10:15:28;;;;;;;19.58;10.77;;;;;;;;;;5055412;28;20025;-83
2022/12/15 10:18:15;;;;;;;17.58;9.50;;;;;;;;;;5055761;28;20103;-83
2022/12/15 10:20:40;;;;;;;21.02;9.50;;;;;;;;;;5054446;28;20324;-83
2022/12/15 10:23:12;;;;;;;25.58;10.02;;;;;;;;;;5054401;28;20056;-83
2022/12/15 10:25:40;;;;;;;27.42;10.27;;;;;;;;;;5056428;28;20045;-83
2022/12/15 10:28:12;;;;;;;18.67;8.68;;;;;;;;;;5056128;28;20039;-83
2022/12/15 10:34:33;;;;;;;26.27;11.10;;;;;;;;;;5055831;28;20067;-83
2022/12/15 10:36:58;;;;;;;21.20;7.95;;;;;;;;;;5050815;28;20139;-84
2022/12/15 10:39:37;;;;;;;20.40;8.40;;;;;;;;;;5055827;28;20036;-83
2022/12/15 10:42:29;;;;;;;18.63;8.55;;;;;;;;;;5054020;28;20025;-83
2022/12/15 10:44:57;;;;;;;20.92;10.45;;;;;;;;;;5050294;28;20593;-84
2022/12/15 10:47:30;;;;;;;20.63;9.32;;;;;;;;;;5055000;28;20033;-83
2022/12/15 10:50:15;;;;;;;18.17;9.73;;;;;;;;;;5055370;28;20040;-84
2022/12/15 10:52:41;;;;;;;19.40;9.77;;;;;;;;;;5040203;28;20009;-82
2022/12/15 10:55:27;;;;;;;33.20;11.38;;;;;;;;;;5059505;28;20064;-80
2022/12/15 10:58:15;;;;;;;15.43;9.75;;;;;;;;;;5057425;28;20135;-81
2022/12/15 11:00:41;;;;;;;17.40;7.00;;;;;;;;;;5063728;28;20032;-82
2022/12/15 11:03:25;;;;;;;16.00;8.45;;;;;;;;;;5054502;28;20029;-81
2022/12/15 11:05:55;;;;;;;21.85;8.93;;;;;;;;;;5056252;28;20031;-81
2022/12/15 11:08:23;;;;;;;21.70;10.25;;;;;;;;;;5048663;28;20086;-83
2022/12/15 11:13:40;;;;;;;18.75;7.65;;;;;;;;;;5051590;28;20036;-82
2022/12/15 11:16:14;;;;;;;22.58;9.35;;;;;;;;;;5054633;28;20021;-82
2022/12/15 11:18:54;;;;;;;21.50;10.77;;;;;;;;;;5055153;28;20013;-83
2022/12/15 11:21:31;;;;;;;23.85;10.70;;;;;;;;;;5056095;28;20032;-83
2022/12/15 11:24:28;;;;;;;20.08;8.98;;;;;;;;;;5059798;28;20063;-83
2022/12/15 11:30:18;;;;;;;14.48;8.73;;;;;;;;;;5005850;28;20068;-83
2022/12/15 11:32:47;;;;;;;24.92;10.63;;;;;;;;;;5051252;28;20082;-83
2022/12/15 12:07:04;;;;;;;18.75;10.05;;;;;;;;;;5034425;28;20104;-85
2022/12/15 12:09:35;;;;;;;27.23;10.23;;;;;;;;;;5011849;28;20025;-84
2022/12/15 12:12:39;;;;;;;;;;;;;;;;;;;;;
2022/12/15 12:15:37;;;;;;;22.45;10.77;;;;;;;;;;5034414;28;20033;-83
2022/12/15 12:18:49;;;;;;;18.77;9.70;;;;;;;;;;5011962;28;20029;-84
2022/12/15 12:21:23;;;;;;;20.50;9.85;;;;;;;;;;5021390;28;20041;-84
2022/12/15 12:24:29;;;;;;;;;;;;;;;;;;;;;
2022/12/15 12:27:03;;;;;;;20.98;9.65;;;;;;;;;;5041043;28;20553;-86
2022/12/15 12:30:20;;;;;;;18.25;9.82;;;;;;;;;;5035310;28;20033;-86
2022/12/15 12:33:00;;;;;;;23.90;9.10;;;;;;;;;;5035342;28;20030;-84
2022/12/15 12:36:13;;;;;;;24.52;10.45;;;;;;;;;;5249307;22;20052;-84
2022/12/15 12:38:57;;;;;;;;;;;;;;;;;;5036260;28;20578;-84
2022/12/15 12:41:38;;;;;;;15.93;8.93;;;;;;;;;;5047172;28;19916;-84
2022/12/15 12:44:31;;;;;;;19.83;8.93;;;;;;;;;;5055221;28;20557;-84
2022/12/15 12:46:59;;;;;;;22.15;10.40;;;;;;;;;;5033321;28;20045;-83
2022/12/15 12:49:35;;;;;;;18.15;9.52;;;;;;;;;;5022092;28;20151;-82
2022/12/15 12:52:05;;;;;;;16.13;8.35;;;;;;;;;;5022766;28;20041;-84
2022/12/15 12:54:36;;;;;;;19.45;9.10;;;;;;;;;;5039702;28;20324;-78
2022/12/15 12:57:27;;;;;;;19.23;9.93;;;;;;;;;;5039925;28;20067;-82
2022/12/15 13:00:35;;;;;;;21.52;9.38;;;;;;;;;;5014384;28;20034;-82
2022/12/15 13:03:16;;;;;;;20.05;9.00;;;;;;;;;;5022263;28;20025;-83
2022/12/15 13:05:58;;;;;;;;;;;;;;;;;;;;;
2022/12/15 13:08:48;;;;;;;19.25;9.48;;;;;;;;;;5014169;28;20040;-83
2022/12/15 13:34:46;;;;;;;16.25;7.57;;;;;;;;;;4914099;29;20403;-83
2022/12/15 13:40:36;;;;;;;11.18;6.40;;;;;;;;;;4967767;28;20038;-82
2022/12/15 13:46:34;;;;;;;13.57;6.72;;;;;;;;;;5043948;28;20098;-87
2022/12/15 13:49:27;;;;;;;15.70;6.88;;;;;;;;;;5050680;28;20025;-83
2022/12/15 13:52:00;;;;;;;15.88;7.13;;;;;;;;;;5044115;28;20043;-83
2022/12/15 13:54:40;;;;;;;12.73;7.03;;;;;;;;;;5034817;28;20021;-83
2022/12/15 13:57:13;;;;;;;17.60;8.70;;;;;;;;;;5034556;28;20565;-83
2022/12/15 13:59:38;;;;;;;14.98;7.47;;;;;;;;;;5036034;28;20372;-83
2022/12/15 14:02:29;;;;;;;15.85;8.52;;;;;;;;;;5034002;28;20068;-83
2022/12/15 14:05:13;;;;;;;18.17;7.50;;;;;;;;;;5034899;28;20037;-84
2022/12/15 14:07:47;;;;;;;17.10;7.30;;;;;;;;;;5036054;28;20025;-84
2022/12/15 14:10:23;;;;;;;17.52;8.82;;;;;;;;;;5033863;28;20029;-84
2022/12/15 14:12:52;;;;;;;16.80;9.07;;;;;;;;;;5035624;28;20033;-85
2022/12/15 14:15:21;;;;;;;18.08;8.57;;;;;;;;;;5035803;28;20033;-84
2022/12/15 14:18:05;;;;;;;16.08;8.30;;;;;;;;;;5038001;28;20105;-85
2022/12/15 14:30:28;;;;;;;14.45;8.15;;;;;;;;;;4973601;28;20338;-85
2022/12/15 14:33:14;;;;;;;14.43;7.88;;;;;;;;;;4958681;28;20039;-85
2022/12/15 14:35:58;;;;;;;21.38;10.23;;;;;;;;;;4995140;28;20480;-83
2022/12/15 14:38:33;;;;;;;15.27;8.45;;;;;;;;;;5019551;28;20416;-84
2022/12/15 14:41:33;;;;;;;18.63;9.05;;;;;;;;;;5018489;28;20114;-84
2022/12/15 14:44:28;;;;;;;20.80;9.82;;;;;;;;;;5036580;28;20057;-84
2022/12/15 14:50:47;;;;;;;24.60;10.40;;;;;;;;;;5035047;28;20036;-83
2022/12/15 15:01:14;;;;;;;16.38;7.50;;;;;;;;;;5025351;28;20033;-84
2022/12/15 15:04:31;;;;;;;;;;;;;;;;;;;;;
2022/12/15 15:20:23;;;;;;;18.25;7.68;;;;;;;;;;5810807;23;20571;-83
2022/12/15 15:23:12;;;;;;;13.05;6.45;;;;;;;;;;5001284;28;20026;-83
2022/12/15 15:26:17;;;;;;;15.02;8.23;;;;;;;;;;5014011;28;20045;-85
2022/12/15 15:28:43;;;;;;;11.20;6.13;;;;;;;;;;4998982;28;20038;-81
2022/12/15 15:31:24;;;;;;;16.23;7.10;;;;;;;;;;4994568;28;20026;-82
2022/12/15 15:33:50;;;;;;;10.65;6.40;;;;;;;;;;5005723;28;20095;-81
2022/12/15 15:36:16;;;;;;;10.98;5.40;;;;;;;;;;4996481;28;20029;-82
2022/12/15 15:38:42;;;;;;;14.07;7.93;;;;;;;;;;4991452;28;20026;-83
2022/12/15 15:41:21;;;;;;;16.15;7.80;;;;;;;;;;5004750;28;20037;-83
2022/12/15 15:43:46;;;;;;;12.77;6.03;;;;;;;;;;5007703;28;20022;-81
2022/12/15 15:46:16;;;;;;;12.30;6.60;;;;;;;;;;4994903;28;20029;-82
2022/12/15 15:48:45;;;;;;;13.02;6.53;;;;;;;;;;4996104;28;20030;-82
2022/12/15 15:51:11;;;;;;;14.70;7.65;;;;;;;;;;4986657;28;20030;-81
2022/12/15 15:53:37;;;;;;;14.38;7.28;;;;;;;;;;4994070;28;20022;-82
2022/12/15 15:56:09;;;;;;;11.10;6.43;;;;;;;;;;5000702;28;20027;-82
2022/12/15 15:58:35;;;;;;;14.70;7.18;;;;;;;;;;5017461;28;20049;-82
2022/12/15 16:01:00;;;;;;;14.10;7.65;;;;;;;;;;5010071;28;20389;-82
2022/12/15 16:03:26;;;;;;;13.55;7.38;;;;;;;;;;4996715;28;20017;-81
2022/12/15 16:05:52;;;;;;;13.63;7.30;;;;;;;;;;4992717;28;20057;-81
2022/12/15 16:08:23;;;;;;;14.90;7.63;;;;;;;;;;5012731;28;20033;-81
2022/12/15 16:10:49;;;;;;;15.07;7.85;;;;;;;;;;5009427;28;21576;-81
2022/12/15 16:13:17;;;;;;;19.10;8.98;;;;;;;;;;4990654;28;20117;-81
2022/12/15 16:15:42;;;;;;;15.43;7.47;;;;;;;;;;5008260;28;20121;-80
2022/12/15 16:18:07;;;;;;;15.05;8.00;;;;;;;;;;4990959;28;20104;-82
2022/12/15 16:20:34;;;;;;;12.73;7.03;;;;;;;;;;5010870;28;20613;-81
2022/12/15 16:23:06;;;;;;;14.02;7.90;;;;;;;;;;4996033;28;20110;-81
2022/12/15 16:25:44;;;;;;;16.15;7.60;;;;;;;;;;5015395;28;20025;-80
2022/12/15 16:28:19;;;;;;;17.63;8.75;;;;;;;;;;5018034;28;20488;-81
2022/12/15 16:30:44;;;;;;;14.93;8.02;;;;;;;;;;5004071;28;20032;-82
2022/12/15 16:33:11;;;;;;;16.17;8.02;;;;;;;;;;5018295;28;20104;-80
2022/12/15 16:35:38;;;;;;;16.90;7.22;;;;;;;;;;4993810;28;20026;-81
2022/12/15 16:38:13;;;;;;;16.60;8.73;;;;;;;;;;5017475;28;20037;-81
2022/12/15 16:40:38;;;;;;;15.60;7.90;;;;;;;;;;4991498;28;20030;-81
2022/12/15 16:43:11;;;;;;;12.32;5.22;;;;;;;;;;5015345;28;20096;-82
2022/12/15 16:45:38;;;;;;;19.45;8.27;;;;;;;;;;4988975;28;20033;-80
2022/12/15 16:48:03;;;;;;;16.35;6.47;;;;;;;;;;5019723;28;20068;-81
2022/12/15 16:50:36;;;;;;;16.58;7.82;;;;;;;;;;5011444;28;20033;-82
2022/12/15 16:53:03;;;;;;;15.18;6.25;;;;;;;;;;5018186;28;20026;-81
2022/12/15 16:55:30;;;;;;;14.52;6.45;;;;;;;;;;4995939;28;20025;-81
2022/12/15 16:58:05;;;;;;;18.10;7.68;;;;;;;;;;5014617;28;20026;-81
2022/12/15 17:00:33;;;;;;;14.93;7.20;;;;;;;;;;5016587;28;20064;-81
2022/12/15 17:02:59;;;;;;;13.70;7.38;;;;;;;;;;5017171;28;20094;-81
2022/12/15 17:05:48;;;;;;;16.58;7.85;;;;;;;;;;5015981;28;20057;-80
2022/12/15 17:08:18;;;;;;;14.45;6.97;;;;;;;;;;5008136;28;20112;-81
2022/12/15 17:10:44;;;;;;;15.80;7.88;;;;;;;;;;5009270;28;20431;-80
2022/12/15 17:13:31;;;;;;;16.42;7.60;;;;;;;;;;5009767;28;20114;-80
2022/12/15 17:15:58;;;;;;;15.90;6.85;;;;;;;;;;5013675;28;20018;-80
2022/12/15 17:18:23;;;;;;;15.68;7.85;;;;;;;;;;5007353;28;20033;-80
2022/12/15 17:20:49;;;;;;;19.40;9.00;;;;;;;;;;5014568;28;20034;-80
2022/12/15 17:23:19;;;;;;;14.65;8.18;;;;;;;;;;4998827;28;20033;-81
2022/12/15 17:25:47;;;;;;;20.00;8.23;;;;;;;;;;5017620;28;20396;-80
2022/12/15 17:28:30;;;;;;;14.35;7.28;;;;;;;;;;5016403;28;20499;-80
2022/12/15 17:30:56;;;;;;;14.82;7.75;;;;;;;;;;5011987;28;20088;-81
2022/12/15 17:33:47;;;;;;;15.00;7.45;;;;;;;;;;4996398;28;20022;-80
2022/12/15 17:36:27;;;;;;;12.20;7.40;;;;;;;;;;5023034;28;20042;-81
2022/12/15 17:39:00;;;;;;;13.63;7.95;;;;;;;;;;5017158;28;20025;-80
2022/12/15 17:41:27;;;;;;;15.73;7.85;;;;;;;;;;4998520;28;20024;-82
2022/12/15 17:43:55;;;;;;;14.07;7.07;;;;;;;;;;5016015;28;20069;-84
2022/12/15 17:46:20;;;;;;;14.02;7.07;;;;;;;;;;5003896;28;20427;-85
2022/12/15 17:48:46;;;;;;;19.95;8.40;;;;;;;;;;5000376;28;20484;-87
2022/12/15 17:51:17;;;;;;;15.82;9.25;;;;;;;;;;5015356;28;20064;-87
2022/12/15 17:53:47;;;;;;;18.35;8.48;;;;;;;;;;5017791;28;20484;-86
2022/12/15 18:11:07;;;;;;;17.85;8.52;;;;;;;;;;4824164;29;20529;-84
2022/12/15 18:13:32;;;;;;;15.88;8.52;;;;;;;;;;4838330;29;20194;-80
2022/12/15 18:16:02;;;;;;;14.50;7.53;;;;;;;;;;4931801;29;20051;-82
2022/12/15 18:18:31;;;;;;;22.30;8.30;;;;;;;;;;4974298;28;20484;-82
2022/12/15 18:21:00;;;;;;;19.10;8.18;;;;;;;;;;4988090;28;20305;-81
2022/12/15 18:23:29;;;;;;;18.20;8.93;;;;;;;;;;4988524;28;20092;-81
2022/12/15 18:25:55;;;;;;;18.00;8.05;;;;;;;;;;5002097;28;20034;-82
2022/12/15 18:28:30;;;;;;;14.05;8.80;;;;;;;;;;5005348;28;21756;-81
2022/12/15 18:31:02;;;;;;;15.23;7.63;;;;;;;;;;4994106;28;20076;-79
2022/12/15 18:33:29;;;;;;;15.65;6.97;;;;;;;;;;5013794;28;20037;-79
2022/12/15 18:35:55;;;;;;;15.32;7.57;;;;;;;;;;5011280;28;20059;-79
2022/12/15 18:38:26;;;;;;;19.17;9.18;;;;;;;;;;5011677;28;20038;-80
2022/12/15 18:40:56;;;;;;;16.38;7.85;;;;;;;;;;4994031;28;20124;-80
2022/12/15 18:43:27;;;;;;;19.85;9.80;;;;;;;;;;5006037;28;20068;-81
2022/12/15 18:45:58;;;;;;;19.53;8.57;;;;;;;;;;4988544;28;20034;-80
2022/12/15 18:48:27;;;;;;;16.67;8.05;;;;;;;;;;5003028;28;20040;-80
2022/12/15 18:50:54;;;;;;;15.35;7.63;;;;;;;;;;4981255;28;20053;-80
2022/12/15 18:53:33;;;;;;;18.42;7.72;;;;;;;;;;4999317;28;20060;-80
2022/12/15 18:56:00;;;;;;;18.85;7.95;;;;;;;;;;4983525;28;20033;-80
2022/12/15 18:58:35;;;;;;;13.77;7.95;;;;;;;;;;5000176;28;20054;-79
2022/12/15 19:01:04;;;;;;;20.10;8.73;;;;;;;;;;4997625;28;20042;-81
2022/12/15 19:03:32;;;;;;;15.02;8.00;;;;;;;;;;5002591;28;20030;-79
2022/12/15 19:06:13;;;;;;;15.68;8.75;;;;;;;;;;5007456;28;20046;-80
2022/12/15 19:09:04;;;;;;;20.25;9.10;;;;;;;;;;4996236;28;20079;-84
2022/12/15 19:11:30;;;;;;;15.20;8.23;;;;;;;;;;4992178;28;20117;-84
2022/12/15 19:14:01;;;;;;;17.52;7.53;;;;;;;;;;4985568;28;20374;-80
2022/12/15 19:22:25;;;;;;;21.35;8.82;;;;;;;;;;4995145;28;20026;-80
2022/12/15 19:22:28;;;;;;;18.88;7.93;;;;;;;;;;5003752;28;20104;-80
2022/12/15 19:24:54;;;;;;;11.98;6.63;;;;;;;;;;5008286;28;20157;-81
2022/12/15 19:27:25;;;;;;;25.40;8.60;;;;;;;;;;5006202;28;20022;-79
2022/12/15 19:30:03;;;;;;;10.68;6.88;;;;;;;;;;4990750;28;20472;-80
2022/12/15 19:32:29;;;;;;;11.02;7.60;;;;;;;;;;5003455;28;20029;-81
2022/12/15 19:34:54;;;;;;;15.65;7.63;;;;;;;;;;5017638;28;20030;-80
2022/12/15 19:37:27;;;;;;;16.20;8.32;;;;;;;;;;4995152;28;20045;-81